Terminal Aerodrome Forecast
Issued by NWS

Home | Current Version | Previous Version | Text Only | Print | Product List | Glossary On
Versions: 1 2 3 4 5 6 7 8 9 10 11 12
000
FTUS45 KABQ 211124
TAFAEG
TAF
KAEG 211124Z 2112/2212 36011KT P6SM BKN250
     FM211900 33014G23KT P6SM SCT250
     FM220000 09010KT P6SM FEW250
     FM220900 VRB05KT P6SM SKC=

USA.gov is the U.S. government's official web portal to all federal, state and local government web resources and services.